createdAt,value
2022-11-20T00:02:11.797Z,10.27
2022-11-20T00:07:13.589Z,10.85
2022-11-20T00:12:15.364Z,12.55
2022-11-20T00:17:17.050Z,7.72
2022-11-20T00:27:20.511Z,10.75
2022-11-20T00:32:22.183Z,12.13
2022-11-20T00:42:25.359Z,10.05
2022-11-20T00:47:27.571Z,9.85
2022-11-20T00:52:29.238Z,7.75
2022-11-20T00:57:30.993Z,8.88
2022-11-20T01:02:32.771Z,13.32
2022-11-20T01:07:34.599Z,10.80
2022-11-20T01:12:36.469Z,9.05
2022-11-20T01:17:38.088Z,8.45
2022-11-20T01:27:42.004Z,9.85
2022-11-20T01:37:45.188Z,9.52
2022-11-20T01:43:13.464Z,8.85
2022-11-20T01:48:15.831Z,7.93
2022-11-20T01:53:20.011Z,8.98
2022-11-20T01:58:24.591Z,10.07
2022-11-20T02:03:27.282Z,8.50
2022-11-20T02:08:29.349Z,8.30
2022-11-20T02:13:46.398Z,7.70
2022-11-20T02:18:48.558Z,7.20
2022-11-20T02:24:08.823Z,7.88
2022-11-20T02:29:10.837Z,7.55
2022-11-20T02:34:12.594Z,6.68
2022-11-20T02:39:14.601Z,7.28
2022-11-20T02:44:16.351Z,7.90
2022-11-20T02:49:18.212Z,9.40
2022-11-20T02:54:19.946Z,11.88
2022-11-20T03:04:23.703Z,9.98
2022-11-20T03:14:27.104Z,9.88
2022-11-20T03:19:28.923Z,10.50
2022-11-20T03:29:32.221Z,8.57
2022-11-20T03:34:33.895Z,8.82
2022-11-20T03:44:37.141Z,8.40
2022-11-20T03:49:38.791Z,6.13
2022-11-20T03:54:40.489Z,7.78
2022-11-20T03:59:42.155Z,9.00
2022-11-20T04:09:45.366Z,7.97
2022-11-20T04:14:47.228Z,7.72
2022-11-20T04:19:51.411Z,8.60
2022-11-20T04:24:53.109Z,7.35
2022-11-20T04:29:55.091Z,7.05
2022-11-20T04:34:56.769Z,9.05
2022-11-20T04:39:58.547Z,9.48
2022-11-20T04:45:00.206Z,7.60
2022-11-20T04:50:01.925Z,7.18
2022-11-20T04:55:04.179Z,8.38
2022-11-20T05:00:06.558Z,8.27
2022-11-20T05:05:08.763Z,8.80
2022-11-20T05:10:10.421Z,9.18
2022-11-20T05:20:13.948Z,10.13
2022-11-20T05:25:15.728Z,8.45
2022-11-20T05:30:17.520Z,9.88
2022-11-20T05:35:19.181Z,5.97
2022-11-20T05:40:20.836Z,5.43
2022-11-20T05:45:22.533Z,4.60
2022-11-20T05:55:25.805Z,6.05
2022-11-20T06:00:27.486Z,5.30
2022-11-20T06:05:29.289Z,5.78
2022-11-20T06:15:32.543Z,4.90
2022-11-20T06:20:39.246Z,5.30
2022-11-20T06:25:43.992Z,5.70
2022-11-20T06:30:46.237Z,5.78
2022-11-20T06:35:48.193Z,4.35
2022-11-20T06:45:54.929Z,3.65
2022-11-20T06:50:57.301Z,5.50
2022-11-20T06:56:00.531Z,6.75
2022-11-20T07:01:04.558Z,5.18
2022-11-20T07:06:06.999Z,6.40
2022-11-20T07:11:09.381Z,6.60
2022-11-20T07:16:11.208Z,9.93
2022-11-20T07:21:12.876Z,11.13
2022-11-20T07:26:14.583Z,8.30
2022-11-20T07:31:19.387Z,9.80
2022-11-20T07:36:21.368Z,7.70
2022-11-20T07:41:23.120Z,5.97
2022-11-20T07:46:24.771Z,6.10
2022-11-20T07:51:27.023Z,6.25
2022-11-20T07:56:28.722Z,6.55
2022-11-20T08:01:30.507Z,6.30
2022-11-20T08:06:32.220Z,8.30
2022-11-20T08:11:52.559Z,9.35
2022-11-20T08:16:54.351Z,8.88
2022-11-20T08:21:56.569Z,8.23
2022-11-20T08:27:00.115Z,7.75
2022-11-20T08:32:01.817Z,7.50
2022-11-20T08:37:04.116Z,10.43
2022-11-20T08:42:09.241Z,9.68
2022-11-20T08:47:10.948Z,12.00
2022-11-20T08:52:12.623Z,10.00
2022-11-20T08:57:14.265Z,12.73
2022-11-20T09:02:16.365Z,9.30
2022-11-20T09:07:18.112Z,9.68
2022-11-20T09:12:19.984Z,9.40
2022-11-20T09:17:21.697Z,10.90
2022-11-20T09:22:23.346Z,10.05
2022-11-20T09:27:25.118Z,8.93
2022-11-20T09:32:26.909Z,11.75
2022-11-20T09:37:28.766Z,11.57
2022-11-20T09:42:36.141Z,9.93
2022-11-20T09:48:21.186Z,11.05
2022-11-20T09:53:36.675Z,8.20
2022-11-20T09:58:44.050Z,8.30
2022-11-20T10:04:07.314Z,7.43
2022-11-20T10:09:31.974Z,10.20
2022-11-20T10:14:57.886Z,8.82
2022-11-20T10:20:21.353Z,9.00
2022-11-20T10:25:34.110Z,7.47
2022-11-20T10:30:41.712Z,7.38
2022-11-20T10:35:46.209Z,8.35
2022-11-20T10:40:53.513Z,7.80
2022-11-20T10:46:10.100Z,8.27
2022-11-20T10:51:30.100Z,8.93
2022-11-20T10:56:53.719Z,8.27
2022-11-20T11:01:55.368Z,6.50
2022-11-20T11:07:20.820Z,6.93
2022-11-20T11:12:25.544Z,8.73
2022-11-20T11:17:30.347Z,7.53
2022-11-20T11:22:34.386Z,5.38
2022-11-20T11:27:47.139Z,4.72
2022-11-20T11:32:49.047Z,4.15
2022-11-20T11:37:51.999Z,6.35
2022-11-20T11:43:00.333Z,4.47
2022-11-20T11:48:04.267Z,6.28
2022-11-20T11:53:14.420Z,4.43
2022-11-20T11:58:34.972Z,4.05
2022-11-20T12:03:38.852Z,5.88
2022-11-20T12:08:47.936Z,4.45
2022-11-20T12:14:02.707Z,5.82
2022-11-20T12:19:09.333Z,5.05
2022-11-20T12:24:30.644Z,4.25
2022-11-20T12:30:03.341Z,5.75
2022-11-20T12:35:23.434Z,4.38
2022-11-20T12:40:31.044Z,4.55
2022-11-20T12:45:41.589Z,5.75
2022-11-20T12:51:14.467Z,5.30
2022-11-20T12:56:29.172Z,3.97
2022-11-20T13:01:53.028Z,4.40
2022-11-20T13:06:55.429Z,5.88
2022-11-20T13:12:12.149Z,4.43
2022-11-20T13:17:39.170Z,4.43
2022-11-20T13:23:00.950Z,4.05
2022-11-20T13:28:22.485Z,3.83
2022-11-20T13:33:35.473Z,3.53
2022-11-20T13:39:07.358Z,3.35
2022-11-20T13:44:16.523Z,3.80
2022-11-20T13:49:32.295Z,5.15
2022-11-20T13:54:55.763Z,4.63
2022-11-20T14:00:14.667Z,3.80
2022-11-20T14:05:22.139Z,5.25
2022-11-20T14:10:33.110Z,3.40
2022-11-20T14:15:39.251Z,4.78
2022-11-20T14:20:44.213Z,4.93
2022-11-20T14:25:46.214Z,5.40
2022-11-20T14:30:52.142Z,4.65
2022-11-20T14:35:56.234Z,5.80
2022-11-20T14:41:20.062Z,6.63
2022-11-20T14:46:22.079Z,6.20
2022-11-20T14:51:31.299Z,7.10
2022-11-20T14:56:32.935Z,6.43
2022-11-20T15:01:35.047Z,4.68
2022-11-20T15:06:37.230Z,5.43
2022-11-20T15:11:38.854Z,7.45
2022-11-20T15:16:40.685Z,5.65
2022-11-20T15:21:42.328Z,4.30
2022-11-20T15:26:44.613Z,4.70
2022-11-20T15:31:46.500Z,6.25
2022-11-20T15:36:48.159Z,4.63
2022-11-20T15:41:49.834Z,5.75
2022-11-20T15:46:51.702Z,5.72
2022-11-20T15:51:54.916Z,5.32
2022-11-20T15:56:56.540Z,6.53
2022-11-20T16:01:58.335Z,4.97
2022-11-20T16:07:00.155Z,6.38
2022-11-20T16:12:01.941Z,6.70
2022-11-20T16:17:08.552Z,6.40
2022-11-20T16:22:12.089Z,5.75
2022-11-20T16:27:13.778Z,4.93
2022-11-20T16:32:15.416Z,6.63
2022-11-20T16:37:17.060Z,7.65
2022-11-20T16:42:18.783Z,6.05
2022-11-20T16:47:20.435Z,7.10
2022-11-20T16:52:26.530Z,5.10
2022-11-20T16:57:29.795Z,9.73
2022-11-20T17:02:33.787Z,4.90
2022-11-20T17:07:35.494Z,5.07
2022-11-20T17:12:37.142Z,5.63
2022-11-20T17:17:38.787Z,7.93
2022-11-20T17:22:42.883Z,12.45
2022-11-20T17:27:44.562Z,7.57
2022-11-20T17:32:49.054Z,6.82
2022-11-20T17:37:51.803Z,6.90
2022-11-20T17:42:53.434Z,7.03
2022-11-20T17:47:55.136Z,4.30
2022-11-20T17:52:56.845Z,5.20
2022-11-20T17:58:03.128Z,6.75
2022-11-20T18:03:04.808Z,4.38
2022-11-20T18:08:06.579Z,6.25
2022-11-20T18:13:08.264Z,6.15
2022-11-20T18:18:10.124Z,7.40
2022-11-20T18:23:11.777Z,6.68
2022-11-20T18:28:13.461Z,6.47
2022-11-20T18:33:15.146Z,6.53
2022-11-20T18:38:16.780Z,7.78
2022-11-20T18:43:39.064Z,9.27
2022-11-20T18:48:40.835Z,8.55
2022-11-20T18:53:47.092Z,8.77
2022-11-20T18:58:49.532Z,7.45
2022-11-20T19:03:51.174Z,6.55
2022-11-20T19:08:53.339Z,7.63
2022-11-20T19:13:55.334Z,9.07
2022-11-20T19:19:03.217Z,8.57
2022-11-20T19:24:05.396Z,7.55
2022-11-20T19:29:07.346Z,8.20
2022-11-20T19:34:09.269Z,8.65
2022-11-20T19:39:11.571Z,7.70
2022-11-20T19:44:15.195Z,9.50
2022-11-20T19:49:22.853Z,8.73
2022-11-20T19:54:25.084Z,10.38
2022-11-20T19:59:30.620Z,10.10
2022-11-20T20:04:32.399Z,10.75
2022-11-20T20:09:35.016Z,10.70
2022-11-20T20:14:36.793Z,11.63
2022-11-20T20:19:38.496Z,10.85
2022-11-20T20:24:40.256Z,14.48
2022-11-20T20:29:42.014Z,11.73
2022-11-20T20:34:43.753Z,10.10
2022-11-20T20:39:45.626Z,13.00
2022-11-20T20:45:05.883Z,11.55
2022-11-20T20:50:10.589Z,13.00
2022-11-20T20:55:12.387Z,12.63
2022-11-20T21:00:14.663Z,13.55
2022-11-20T21:05:16.527Z,13.73
2022-11-20T21:10:23.504Z,11.48
2022-11-20T21:15:25.497Z,14.45
2022-11-20T21:20:45.446Z,12.80
2022-11-20T21:25:47.108Z,11.48
2022-11-20T21:30:49.041Z,11.57
2022-11-20T21:35:50.706Z,12.45
2022-11-20T21:40:52.441Z,11.25
2022-11-20T21:45:56.618Z,10.90
2022-11-20T21:51:06.967Z,14.88
2022-11-20T21:56:10.399Z,12.13
2022-11-20T22:01:20.874Z,12.52
2022-11-20T22:06:23.537Z,11.88
2022-11-20T22:11:25.172Z,9.98
2022-11-20T22:16:27.062Z,10.43
2022-11-20T22:21:30.193Z,11.05
2022-11-20T22:26:39.872Z,12.90
2022-11-20T22:31:42.568Z,11.65
2022-11-20T22:36:44.673Z,13.02
2022-11-20T22:41:46.333Z,13.30
2022-11-20T22:46:47.949Z,12.60
2022-11-20T22:51:49.591Z,12.77
2022-11-20T22:56:51.243Z,12.13
2022-11-20T23:01:53.110Z,14.07
2022-11-20T23:06:54.743Z,12.05
2022-11-20T23:11:56.360Z,14.95
2022-11-20T23:16:58.042Z,16.90
2022-11-20T23:21:59.686Z,15.80
2022-11-20T23:27:01.323Z,16.48
2022-11-20T23:32:02.937Z,14.57
2022-11-20T23:37:04.564Z,17.48
2022-11-20T23:42:06.235Z,17.75
2022-11-20T23:47:07.834Z,17.95
2022-11-20T23:52:09.514Z,18.50
2022-11-20T23:57:11.167Z,18.23
